createdAt,value
2022-12-08T11:22:28.843Z,100271.63
2022-12-08T11:25:31.351Z,100268.22
2022-12-08T11:28:33.504Z,100262.34
2022-12-08T11:31:44.014Z,100260.28
2022-12-08T11:35:07.554Z,100243.06
2022-12-08T11:38:23.363Z,100227.63
2022-12-08T11:42:07.698Z,100207.00
2022-12-08T11:45:30.542Z,100207.44
2022-12-08T11:48:42.447Z,100193.47
2022-12-08T11:51:51.551Z,100198.25
2022-12-08T11:55:17.511Z,100200.59
2022-12-08T11:58:29.405Z,100191.06
2022-12-08T12:01:31.341Z,100193.22
2022-12-08T12:07:26.479Z,100206.88
2022-12-08T12:12:13.696Z,100197.31
2022-12-08T12:15:21.667Z,100199.09
2022-12-08T12:18:24.948Z,100206.34
2022-12-08T12:21:38.104Z,100205.78
2022-12-08T12:24:44.913Z,100208.81
2022-12-08T12:27:57.319Z,100203.72
2022-12-08T12:31:06.557Z,100205.78
2022-12-08T12:34:20.116Z,100205.66
2022-12-08T12:37:45.276Z,100210.84
2022-12-08T12:40:50.925Z,100219.72
2022-12-08T12:44:08.528Z,100212.38
2022-12-08T12:47:18.218Z,100207.00
2022-12-08T12:50:50.476Z,100203.31
2022-12-08T12:53:53.571Z,100193.91
2022-12-08T12:57:08.660Z,100192.97
2022-12-08T13:00:25.093Z,100172.34
2022-12-08T13:03:28.466Z,100173.16
2022-12-08T13:06:43.863Z,100172.91
2022-12-08T13:09:59.141Z,100177.38
2022-12-08T13:13:10.402Z,100174.41
2022-12-08T13:16:22.699Z,100170.69
2022-12-08T13:19:26.794Z,100171.81
2022-12-08T13:22:50.456Z,100158.00
2022-12-08T13:26:08.390Z,100167.31
2022-12-08T13:29:25.952Z,100162.50
2022-12-08T13:33:19.698Z,100171.50
2022-12-08T13:36:26.175Z,100168.78
2022-12-08T13:39:55.103Z,100169.88
2022-12-08T13:43:15.423Z,100176.84
2022-12-08T13:57:48.169Z,100167.16
2022-12-08T14:01:10.172Z,100160.88
2022-12-08T14:04:47.886Z,100171.25
2022-12-08T14:07:51.271Z,100164.56
2022-12-08T14:11:02.741Z,100163.59
2022-12-08T14:14:45.849Z,100163.59
2022-12-08T14:17:52.381Z,100160.31
2022-12-08T14:21:20.897Z,100161.13
2022-12-08T14:24:26.797Z,100158.53
2022-12-08T14:27:34.977Z,100171.09
2022-12-08T14:30:39.680Z,100170.25
2022-12-08T14:33:42.654Z,100176.38
2022-12-08T14:36:44.905Z,100175.16
2022-12-08T14:39:47.674Z,100182.13
2022-12-08T14:43:15.415Z,100176.94
2022-12-08T14:46:25.931Z,100177.34
2022-12-08T14:49:36.297Z,100175.00
2022-12-08T14:52:47.343Z,100179.53
2022-12-08T14:55:50.020Z,100178.84
2022-12-08T14:59:13.059Z,100175.97
2022-12-08T15:02:15.592Z,100165.88
2022-12-08T15:05:45.363Z,100165.06
2022-12-08T15:09:16.306Z,100166.69
2022-12-08T15:12:33.301Z,100163.28
2022-12-08T15:15:55.564Z,100158.09
2022-12-08T15:19:29.759Z,100155.06
2022-12-08T15:22:34.667Z,100157.91
2022-12-08T15:26:07.002Z,100163.97
2022-12-08T15:29:26.241Z,100162.97
2022-12-08T15:32:30.604Z,100164.16
2022-12-08T15:35:37.353Z,100157.34
2022-12-08T15:38:43.806Z,100151.78
2022-12-08T15:41:46.632Z,100154.66
2022-12-08T15:44:48.837Z,100144.13
2022-12-08T15:47:50.887Z,100130.66
2022-12-08T15:50:54.207Z,100141.59
2022-12-08T15:54:00.189Z,100128.75
2022-12-08T15:57:19.219Z,100129.25
2022-12-08T16:07:30.791Z,100139.38
2022-12-08T16:11:08.440Z,100148.69
2022-12-08T16:13:58.438Z,100154.25
2022-12-08T16:17:05.340Z,100154.56
2022-12-08T16:20:12.570Z,100146.09
2022-12-08T16:23:41.083Z,100152.66
2022-12-08T16:30:09.005Z,100131.72
2022-12-08T16:33:12.563Z,100117.38
2022-12-08T16:36:16.333Z,100122.84
2022-12-08T16:39:18.408Z,100115.44
2022-12-08T16:42:44.849Z,100111.97
2022-12-08T16:45:48.328Z,100127.41
2022-12-08T16:48:53.445Z,100129.59
2022-12-08T16:52:04.987Z,100125.13
2022-12-08T16:55:15.249Z,100119.00
2022-12-08T16:58:26.820Z,100137.66
2022-12-08T17:01:29.537Z,100131.97
2022-12-08T17:04:32.571Z,100143.28
2022-12-08T17:07:37.057Z,100143.03
2022-12-08T17:10:41.780Z,100147.66
2022-12-08T17:13:47.162Z,100142.75
2022-12-08T17:16:49.458Z,100143.44
2022-12-08T17:19:53.743Z,100141.13
2022-12-08T17:22:59.494Z,100145.50
2022-12-08T17:26:06.272Z,100141.78
2022-12-08T17:29:11.085Z,100161.63
2022-12-08T17:32:14.525Z,100159.03
2022-12-08T17:35:17.037Z,100170.63
2022-12-08T17:38:22.255Z,100146.44
2022-12-08T17:41:25.417Z,100126.22
2022-12-08T17:44:28.385Z,100119.53
2022-12-08T17:47:30.656Z,100120.34
2022-12-08T17:50:33.735Z,100123.22
2022-12-08T17:53:37.496Z,100126.34
2022-12-08T17:56:42.234Z,100121.84
2022-12-08T17:59:49.206Z,100129.38
2022-12-08T18:02:52.551Z,100129.50
2022-12-08T18:05:57.196Z,100129.25
2022-12-08T18:09:00.878Z,100120.66
2022-12-08T18:12:04.390Z,100119.25
2022-12-08T18:15:12.041Z,100122.56
2022-12-08T18:18:15.474Z,100111.50
2022-12-08T18:21:23.553Z,100112.50
2022-12-08T18:24:25.881Z,100125.53
2022-12-08T18:27:27.804Z,100119.53
2022-12-08T18:30:30.667Z,100112.63
2022-12-08T18:33:33.254Z,100118.06
2022-12-08T18:36:37.047Z,100124.63
2022-12-08T18:39:39.447Z,100130.47
2022-12-08T18:42:42.922Z,100135.53
2022-12-08T18:45:45.613Z,100136.78
2022-12-08T18:48:50.207Z,100134.31
2022-12-08T18:51:53.476Z,100124.28
2022-12-08T18:55:07.513Z,100130.28
2022-12-08T18:58:12.112Z,100124.91
2022-12-08T19:01:15.816Z,100122.59
2022-12-08T19:04:38.553Z,100125.88
2022-12-08T19:07:43.759Z,100126.28
2022-12-08T19:10:45.903Z,100108.69
2022-12-08T19:13:49.991Z,100121.50
2022-12-08T19:16:53.079Z,100129.97
2022-12-08T19:19:55.491Z,100124.78
2022-12-08T19:22:58.508Z,100129.81
2022-12-08T19:26:01.541Z,100133.75
2022-12-08T19:29:03.898Z,100125.56
2022-12-08T19:32:08.142Z,100131.28
2022-12-08T19:35:10.291Z,100134.28
2022-12-08T19:38:13.127Z,100128.44
2022-12-08T19:41:34.560Z,100132.66
2022-12-08T19:44:55.501Z,100127.16
2022-12-08T19:47:57.695Z,100128.53
2022-12-08T19:51:00.568Z,100129.50
2022-12-08T19:54:02.712Z,100118.75
2022-12-08T19:57:04.728Z,100124.19
2022-12-08T20:00:10.328Z,100114.19
2022-12-08T20:03:22.664Z,100111.59
2022-12-08T20:06:26.688Z,100119.00
2022-12-08T20:09:29.029Z,100115.41
2022-12-08T20:12:31.569Z,100106.97
2022-12-08T20:15:33.840Z,100096.03
2022-12-08T20:18:39.064Z,100092.63
2022-12-08T20:21:41.499Z,100099.03
2022-12-08T20:24:43.480Z,100093.81
2022-12-08T20:27:45.956Z,100097.94
2022-12-08T20:30:49.615Z,100093.28
2022-12-08T20:33:52.595Z,100092.06
2022-12-08T20:36:55.006Z,100094.66
2022-12-08T20:39:57.327Z,100103.81
2022-12-08T20:42:59.984Z,100102.19
2022-12-08T20:46:10.539Z,100107.59
2022-12-08T20:49:13.430Z,100110.59
2022-12-08T20:52:18.479Z,100114.66
2022-12-08T20:55:20.662Z,100116.03
2022-12-08T20:58:24.656Z,100115.47
2022-12-08T21:01:27.421Z,100131.97
2022-12-08T21:04:29.880Z,100126.44
2022-12-08T21:07:34.272Z,100126.97
2022-12-08T21:10:42.206Z,100130.66
2022-12-08T21:13:46.952Z,100116.75
2022-12-08T21:16:54.604Z,100125.94
2022-12-08T21:19:58.236Z,100129.63
2022-12-08T21:23:00.932Z,100134.44
2022-12-08T21:26:03.534Z,100122.41
2022-12-08T21:29:07.196Z,100119.53
2022-12-08T21:32:09.380Z,100118.69
2022-12-08T21:35:11.802Z,100117.59
2022-12-08T21:38:14.058Z,100098.91
2022-12-08T21:41:38.810Z,100088.13
2022-12-08T21:44:40.876Z,100090.03
2022-12-08T21:47:44.218Z,100096.59
2022-12-08T21:50:47.234Z,100090.25
2022-12-08T21:53:49.328Z,100081.56
2022-12-08T21:56:51.677Z,100098.72
2022-12-08T21:59:53.764Z,100101.34
2022-12-08T22:02:56.447Z,100106.97
2022-12-08T22:05:58.868Z,100090.25
2022-12-08T22:09:07.235Z,100101.09
2022-12-08T22:12:11.848Z,100111.81
2022-12-08T22:15:14.827Z,100109.59
2022-12-08T22:18:17.294Z,100100.72
2022-12-08T22:21:19.563Z,100094.31
2022-12-08T22:24:21.759Z,100093.78
2022-12-08T22:27:23.734Z,100092.38
2022-12-08T22:30:25.881Z,100113.50
2022-12-08T22:33:31.874Z,100123.44
2022-12-08T22:36:34.383Z,100117.03
2022-12-08T22:39:36.545Z,100119.63
2022-12-08T22:42:38.653Z,100107.94
2022-12-08T22:45:41.116Z,100106.41
2022-12-08T22:48:44.483Z,100111.44
2022-12-08T22:51:46.875Z,100111.22
2022-12-08T22:54:48.893Z,100110.22
2022-12-08T22:57:50.910Z,100102.31
2022-12-08T23:00:52.923Z,100098.09
2022-12-08T23:03:55.749Z,100109.13
2022-12-08T23:06:58.042Z,100109.69
2022-12-08T23:10:00.361Z,100107.50
2022-12-08T23:13:04.180Z,100105.03
2022-12-08T23:16:08.990Z,100110.09
2022-12-08T23:19:11.075Z,100110.09
2022-12-08T23:22:13.156Z,100107.06
2022-12-08T23:25:15.251Z,100102.31
2022-12-08T23:28:17.339Z,100099.81
2022-12-08T23:31:20.462Z,100099.50
2022-12-08T23:34:22.678Z,100104.47
2022-12-08T23:37:25.083Z,100098.31
2022-12-08T23:40:28.525Z,100107.13
2022-12-08T23:43:30.908Z,100105.56
2022-12-08T23:46:33.069Z,100097.56
2022-12-08T23:49:36.617Z,100096.59
2022-12-08T23:52:40.271Z,100092.19
2022-12-08T23:55:42.949Z,100093.66
2022-12-08T23:58:45.974Z,100084.84
